Time;durP1;ratioP1;P1;durP2;ratioP2;P2;SDS_P1;SDS_P2;PMS_P1;PMS_P2;Temp;Humidity;BMP_temperature;BMP_pressure;BME280_temperature;BME280_humidity;BME280_pressure;Samples;Min_cycle;Max_cycle;Signal;HPM_P1;HPM_P2
2023/02/20 00:02:34;;;;;;;;;;;;;;;1.21;69.99;101275.16;104925;1295;59753;-72
2023/02/20 00:05:21;;;;;;;;;;;;;;;1.25;69.98;101274.44;105143;1291;60997;-72
2023/02/20 00:08:07;;;;;;;;;;;;;;;1.27;69.99;101277.58;105107;1292;73895;-72
2023/02/20 00:10:53;;;;;;;;;;;;;;;1.31;70.03;101283.13;104941;1291;68431;-72
2023/02/20 00:13:48;;;;;;;;;;;;;;;1.34;70.08;101283.07;105106;1291;72342;-72
2023/02/20 00:16:34;;;;;;;;;;;;;;;1.39;70.09;101283.36;105116;1292;61258;-72
2023/02/20 00:19:20;;;;;;;;;;;;;;;1.43;70.10;101279.93;105115;1292;61370;-72
2023/02/20 00:22:06;;;;;;;;;;;;;;;1.47;70.05;101277.68;104968;1290;74400;-72
2023/02/20 00:24:53;;;;;;;;;;;;;;;1.49;70.06;101270.96;105018;1289;68069;-72
2023/02/20 00:27:39;;;;;;;;;;;;;;;1.51;70.09;101273.05;104957;1295;72954;-72
2023/02/20 00:30:25;;;;;;;;;;;;;;;1.53;70.05;101266.16;105106;1289;61084;-72
2023/02/20 00:33:11;;;;;;;;;;;;;;;1.56;70.11;101260.30;105017;1288;61375;-72
2023/02/20 00:35:58;;;;;;;;;;;;;;;1.58;70.16;101263.08;105006;1289;76127;-72
2023/02/20 00:38:45;;;;;;;;;;;;;;;1.60;70.11;101259.90;105050;1288;68508;-72
2023/02/20 00:41:31;;;;;;;;;;;;;;;1.60;70.11;101254.46;104957;1288;71174;-72
2023/02/20 00:44:17;;;;;;;;;;;;;;;1.60;70.15;101252.60;104744;1288;61400;-72
2023/02/20 00:47:03;;;;;;;;;;;;;;;1.61;70.14;101251.09;105045;1290;60232;-72
2023/02/20 00:49:49;;;;;;;;;;;;;;;1.61;70.16;101234.43;104823;1295;78970;-72
2023/02/20 00:52:38;;;;;;;;;;;;;;;1.60;70.17;101222.01;105035;1288;70062;-72
2023/02/20 00:55:24;;;;;;;;;;;;;;;1.58;70.17;101219.92;105053;1289;72259;-72
2023/02/20 00:58:11;;;;;;;;;;;;;;;1.57;70.25;101220.55;104875;1294;61281;-72
2023/02/20 01:00:57;;;;;;;;;;;;;;;1.56;70.22;101217.65;105038;1290;61092;-72
2023/02/20 01:03:43;;;;;;;;;;;;;;;1.56;70.24;101212.55;105030;1291;74614;-72
2023/02/20 01:06:29;;;;;;;;;;;;;;;1.54;70.17;101221.69;104927;1295;68199;-72
2023/02/20 01:09:15;;;;;;;;;;;;;;;1.51;70.21;101231.80;104966;1293;72110;-72
2023/02/20 01:12:01;;;;;;;;;;;;;;;1.49;70.30;101230.52;104998;1290;61247;-72
2023/02/20 01:14:47;;;;;;;;;;;;;;;1.48;70.34;101233.20;105067;1290;61271;-72
2023/02/20 01:17:34;;;;;;;;;;;;;;;1.45;70.31;101231.10;104977;1289;73184;-72
2023/02/20 01:20:20;;;;;;;;;;;;;;;1.44;70.35;101224.59;105016;1289;69816;-72
2023/02/20 01:23:06;;;;;;;;;;;;;;;1.43;70.38;101213.02;105011;1289;72181;-72
2023/02/20 01:25:53;;;;;;;;;;;;;;;1.41;70.36;101207.17;105013;1289;59741;-72
2023/02/20 01:28:42;;;;;;;;;;;;;;;1.39;70.38;101209.14;104874;1294;59714;-72
2023/02/20 01:31:28;;;;;;;;;;;;;;;1.38;70.40;101207.77;104806;1291;73755;-72
2023/02/20 01:34:16;;;;;;;;;;;;;;;1.39;70.44;101208.46;104994;1289;71415;-72
2023/02/20 01:37:02;;;;;;;;;;;;;;;1.39;70.47;101205.27;104712;1290;72544;-72
2023/02/20 01:39:48;;;;;;;;;;;;;;;1.43;70.57;101202.14;104849;1291;61167;-72
2023/02/20 01:42:34;;;;;;;;;;;;;;;1.48;70.61;101194.64;105036;1288;61294;-72
2023/02/20 01:45:20;;;;;;;;;;;;;;;1.51;70.48;101190.14;104926;1290;74924;-72
2023/02/20 01:48:17;;;;;;;;;;;;;;;1.53;70.59;101187.34;105096;1288;67947;-72
2023/02/20 01:51:03;;;;;;;;;;;;;;;1.57;70.61;101183.52;105033;1288;72110;-72
2023/02/20 01:53:49;;;;;;;;;;;;;;;1.59;70.64;101181.71;105085;1288;62023;-72
2023/02/20 01:56:36;;;;;;;;;;;;;;;1.63;70.62;101178.58;105098;1289;59695;-72
2023/02/20 01:59:24;;;;;;;;;;;;;;;1.66;70.68;101179.86;105068;1292;74895;-72
2023/02/20 02:02:10;;;;;;;;;;;;;;;1.69;70.62;101180.48;104944;1288;68241;-72
2023/02/20 02:04:57;;;;;;;;;;;;;;;1.73;70.65;101181.26;105017;1290;73977;-72
2023/02/20 02:07:43;;;;;;;;;;;;;;;1.75;70.65;101172.66;104917;1293;59710;-72
2023/02/20 02:10:31;;;;;;;;;;;;;;;1.77;70.68;101161.15;104944;1288;61257;-72
2023/02/20 02:13:17;;;;;;;;;;;;;;;1.78;70.71;101149.27;104944;1293;73295;-72
2023/02/20 02:16:13;;;;;;;;;;;;;;;1.79;70.70;101137.08;104978;1293;67330;-72
2023/02/20 02:19:05;;;;;;;;;;;;;;;1.80;70.65;101126.05;105129;1288;70707;-72
2023/02/20 02:22:04;;;;;;;;;;;;;;;1.80;70.74;101124.00;104999;1288;61372;-72
2023/02/20 02:25:05;;;;;;;;;;;;;;;1.79;70.80;101115.15;105148;1291;59313;-71
2023/02/20 02:28:10;;;;;;;;;;;;;;;1.79;70.82;101110.89;105125;1288;73885;-71
2023/02/20 02:31:11;;;;;;;;;;;;;;;1.79;70.84;101110.06;105116;1288;69153;-71
2023/02/20 02:34:16;;;;;;;;;;;;;;;1.80;70.79;101114.50;105000;1288;72448;-72
2023/02/20 02:37:11;;;;;;;;;;;;;;;1.81;70.83;101121.84;105057;1288;59616;-72
2023/02/20 02:40:11;;;;;;;;;;;;;;;1.83;70.90;101122.05;106199;1288;59924;-72
2023/02/20 02:42:56;;;;;;;;;;;;;;;1.84;70.95;101126.33;106222;1288;74569;-72
2023/02/20 02:46:01;;;;;;;;;;;;;;;1.86;71.06;101126.73;106078;1288;68423;-72
2023/02/20 02:48:53;;;;;;;;;;;;;;;1.88;71.01;101113.37;106196;1288;72458;-72
2023/02/20 02:51:44;;;;;;;;;;;;;;;1.91;71.01;101110.88;105630;1290;709623;-72
2023/02/20 02:54:30;;;;;;;;;;;;;;;1.93;71.06;101105.68;106033;1288;59211;-72
2023/02/20 02:57:19;;;;;;;;;;;;;;;1.96;71.06;101100.82;106182;1288;73442;-72
2023/02/20 03:00:09;;;;;;;;;;;;;;;1.99;71.08;101104.98;106150;1290;68490;-72
2023/02/20 03:03:12;;;;;;;;;;;;;;;2.02;71.11;101097.42;106060;1288;72120;-72
2023/02/20 03:05:58;;;;;;;;;;;;;;;2.06;71.14;101093.94;106010;1290;59149;-72
2023/02/20 03:08:48;;;;;;;;;;;;;;;2.09;71.13;101092.96;106177;1288;58908;-72
2023/02/20 03:11:35;;;;;;;;;;;;;;;2.12;71.22;101088.11;106222;1287;74535;-72
2023/02/20 03:17:35;;;;;;;;;;;;;;;2.17;71.32;101077.02;106151;1288;71165;-73
2023/02/20 03:20:22;;;;;;;;;;;;;;;2.21;71.30;101072.02;105999;1288;59148;-72
2023/02/20 03:23:11;;;;;;;;;;;;;;;2.24;71.27;101068.02;105971;1289;60294;-72
2023/02/20 03:26:01;;;;;;;;;;;;;;;2.26;71.26;101068.23;105993;1293;75391;-72
2023/02/20 03:28:55;;;;;;;;;;;;;;;2.28;71.31;101074.42;106029;1288;67561;-72
2023/02/20 03:44:14;;;;;;;;;;;;;;;2.35;71.45;101068.30;106011;1289;68365;-72
2023/02/20 03:47:01;;;;;;;;;;;;;;;2.36;71.51;101066.78;105944;1288;72971;-72
2023/02/20 03:49:49;;;;;;;;;;;;;;;2.37;71.50;101062.39;106016;1291;58988;-72
2023/02/20 03:52:35;;;;;;;;;;;;;;;2.38;71.52;101056.63;105963;1289;59986;-72
2023/02/20 03:55:23;;;;;;;;;;;;;;;2.39;71.50;101058.36;105873;1291;73208;-72
2023/02/20 03:58:12;;;;;;;;;;;;;;;2.41;71.65;101056.20;105991;1289;67538;-72
2023/02/20 04:01:00;;;;;;;;;;;;;;;2.43;71.62;101049.95;105903;1289;73852;-72
2023/02/20 04:03:48;;;;;;;;;;;;;;;2.45;71.69;101053.40;105928;1289;58998;-72
2023/02/20 04:06:35;;;;;;;;;;;;;;;2.47;71.68;101055.48;106069;1289;59225;-72
2023/02/20 04:09:27;;;;;;;;;;;;;;;2.48;71.69;101059.77;106099;1288;73341;-72
2023/02/20 04:12:17;;;;;;;;;;;;;;;2.50;71.72;101059.80;105566;1289;69218;-72
2023/02/20 04:15:05;;;;;;;;;;;;;;;2.51;71.74;101047.09;104770;1291;73161;-72
2023/02/20 04:17:57;;;;;;;;;;;;;;;2.51;71.73;101037.73;104822;1291;61268;-72
2023/02/20 04:20:45;;;;;;;;;;;;;;;2.51;71.77;101034.50;104983;1292;61081;-72
2023/02/20 04:23:34;;;;;;;;;;;;;;;2.51;71.79;101030.92;104781;1291;74975;-72
2023/02/20 04:26:21;;;;;;;;;;;;;;;2.51;71.78;101024.28;104831;1290;67229;-72
2023/02/20 04:29:07;;;;;;;;;;;;;;;2.50;71.82;101025.10;104842;1289;71984;-72
2023/02/20 04:31:53;;;;;;;;;;;;;;;2.48;71.81;101031.70;104968;1291;61046;-72
2023/02/20 04:34:40;;;;;;;;;;;;;;;2.47;71.87;101036.61;105016;1289;61202;-72
2023/02/20 04:37:26;;;;;;;;;;;;;;;2.48;71.92;101030.33;104810;1289;73372;-72
2023/02/20 04:40:15;;;;;;;;;;;;;;;2.47;71.98;101024.00;105001;1290;67244;-72
2023/02/20 04:43:01;;;;;;;;;;;;;;;2.47;72.01;101015.84;105012;1288;71311;-72
2023/02/20 04:45:47;;;;;;;;;;;;;;;2.45;71.98;100998.29;105063;1288;60372;-72
2023/02/20 04:48:33;;;;;;;;;;;;;;;2.43;71.95;100992.45;105033;1288;61669;-72
2023/02/20 04:51:19;;;;;;;;;;;;;;;2.42;72.02;100983.41;105112;1287;75272;-72
2023/02/20 04:54:05;;;;;;;;;;;;;;;2.41;71.99;100977.42;104968;1290;67223;-72
2023/02/20 04:56:52;;;;;;;;;;;;;;;2.41;72.02;100970.10;105056;1288;71282;-72
2023/02/20 04:59:38;;;;;;;;;;;;;;;2.39;72.11;100963.60;104941;1288;61315;-72
2023/02/20 05:02:24;;;;;;;;;;;;;;;2.39;72.19;100960.19;105104;1288;61134;-72
2023/02/20 05:05:15;;;;;;;;;;;;;;;2.36;72.19;100957.73;104973;1288;74625;-72
2023/02/20 05:08:03;;;;;;;;;;;;;;;2.35;72.19;100962.48;105106;1288;67891;-72
2023/02/20 05:10:49;;;;;;;;;;;;;;;2.35;72.28;100958.39;105121;1288;71178;-72
2023/02/20 05:13:35;;;;;;;;;;;;;;;2.33;72.35;100947.14;105108;1288;59416;-72
2023/02/20 05:16:21;;;;;;;;;;;;;;;2.33;72.45;100946.28;105142;1288;61176;-72
2023/02/20 05:19:07;;;;;;;;;;;;;;;2.31;72.37;100934.85;105082;1288;73122;-72
2023/02/20 05:24:58;;;;;;;;;;;;;;;2.31;72.48;100921.40;105142;1290;73199;-73
2023/02/20 05:27:45;;;;;;;;;;;;;;;2.30;72.49;100913.40;105141;1292;61299;-73
2023/02/20 05:30:31;;;;;;;;;;;;;;;2.31;72.49;100908.30;105177;1287;61186;-73
2023/02/20 05:33:17;;;;;;;;;;;;;;;2.32;72.54;100898.79;105052;1288;74119;-73
2023/02/20 05:36:03;;;;;;;;;;;;;;;2.32;72.57;100892.49;105125;1290;67255;-73
2023/02/20 05:38:50;;;;;;;;;;;;;;;2.31;72.52;100891.31;105132;1288;72680;-73
2023/02/20 05:41:36;;;;;;;;;;;;;;;2.31;72.57;100891.98;105048;1288;61265;-79
2023/02/20 05:44:22;;;;;;;;;;;;;;;2.31;72.66;100888.23;105035;1289;61827;-73
2023/02/20 05:47:08;;;;;;;;;;;;;;;2.31;72.64;100891.46;105129;1288;75067;-74
2023/02/20 05:49:54;;;;;;;;;;;;;;;2.31;72.65;100891.63;105142;1289;67195;-74
2023/02/20 05:52:41;;;;;;;;;;;;;;;2.31;72.63;100888.74;104933;1288;71435;-74
2023/02/20 05:55:27;;;;;;;;;;;;;;;2.31;72.72;100886.35;105049;1290;61430;-75
2023/02/20 05:58:13;;;;;;;;;;;;;;;2.31;72.87;100878.89;105081;1288;62171;-74
2023/02/20 06:00:59;;;;;;;;;;;;;;;2.33;72.82;100862.92;105162;1288;73825;-74
2023/02/20 06:03:45;;;;;;;;;;;;;;;2.34;72.82;100857.16;105091;1288;67556;-74
2023/02/20 06:06:36;;;;;;;;;;;;;;;2.35;72.87;100854.96;105127;1288;73015;-74
2023/02/20 06:09:22;;;;;;;;;;;;;;;2.36;73.06;100859.93;105051;1288;61195;-74
2023/02/20 06:12:08;;;;;;;;;;;;;;;2.37;73.02;100871.01;105110;1288;61278;-74
2023/02/20 06:14:55;;;;;;;;;;;;;;;2.38;72.96;100872.21;105074;1288;74960;-74
2023/02/20 06:17:41;;;;;;;;;;;;;;;2.39;73.12;100864.74;105118;1288;67115;-74
2023/02/20 06:20:27;;;;;;;;;;;;;;;2.40;73.10;100846.58;105041;1289;73084;-74
2023/02/20 06:23:13;;;;;;;;;;;;;;;2.42;73.26;100840.48;105128;1292;60641;-74
2023/02/20 06:25:59;;;;;;;;;;;;;;;2.42;73.32;100828.92;105059;1288;59574;-74
2023/02/20 06:28:48;;;;;;;;;;;;;;;2.44;73.41;100825.73;105033;1292;73195;-74
2023/02/20 06:31:35;;;;;;;;;;;;;;;2.47;73.25;100823.23;105078;1288;69018;-74
2023/02/20 06:34:24;;;;;;;;;;;;;;;2.49;73.37;100817.33;105087;1288;74685;-74
2023/02/20 06:37:10;;;;;;;;;;;;;;;2.50;73.47;100812.59;105068;1290;61233;-74
2023/02/20 06:39:57;;;;;;;;;;;;;;;2.52;73.52;100806.49;105103;1288;59504;-74
2023/02/20 06:42:43;;;;;;;;;;;;;;;2.53;73.50;100801.08;105010;1288;74916;-74
2023/02/20 06:45:29;;;;;;;;;;;;;;;2.56;73.52;100796.71;104987;1290;68486;-74
2023/02/20 06:48:16;;;;;;;;;;;;;;;2.59;73.55;100789.95;105056;1288;72129;-74
2023/02/20 06:51:02;;;;;;;;;;;;;;;2.63;73.65;100776.38;105032;1290;61114;-74
2023/02/20 06:53:48;;;;;;;;;;;;;;;2.65;73.74;100769.45;105092;1288;61781;-74
2023/02/20 06:56:35;;;;;;;;;;;;;;;2.69;73.80;100758.12;105036;1288;74468;-74
2023/02/20 06:59:21;;;;;;;;;;;;;;;2.74;73.89;100751.05;104955;1290;67508;-74
2023/02/20 07:02:11;;;;;;;;;;;;;;;2.79;73.91;100740.59;104979;1288;71802;-74
2023/02/20 07:04:57;;;;;;;;;;;;;;;2.83;73.99;100743.90;105050;1288;62257;-73
2023/02/20 07:07:44;;;;;;;;;;;;;;;2.87;73.90;100728.98;104914;1289;61162;-74
2023/02/20 07:10:30;;;;;;;;;;;;;;;2.89;73.96;100723.92;105058;1289;73301;-74
2023/02/20 07:13:16;;;;;;;;;;;;;;;2.93;74.10;100713.09;105016;1288;67310;-74
2023/02/20 07:16:02;;;;;;;;;;;;;;;2.96;74.06;100711.45;105047;1292;72418;-74
2023/02/20 07:18:48;;;;;;;;;;;;;;;3.00;74.07;100701.11;105119;1288;61276;-74
2023/02/20 07:21:34;;;;;;;;;;;;;;;3.03;74.27;100690.78;105029;1288;61576;-74
2023/02/20 07:24:20;;;;;;;;;;;;;;;3.05;74.25;100689.61;105078;1288;73129;-74
2023/02/20 07:27:09;;;;;;;;;;;;;;;3.08;74.31;100679.44;105030;1287;68350;-74
2023/02/20 07:29:55;;;;;;;;;;;;;;;3.10;74.25;100684.59;105061;1288;71196;-74
2023/02/20 07:32:41;;;;;;;;;;;;;;;3.12;74.46;100685.63;105105;1288;61250;-74
2023/02/20 07:35:28;;;;;;;;;;;;;;;3.13;74.32;100677.45;105141;1289;61153;-74
2023/02/20 07:38:14;;;;;;;;;;;;;;;3.16;74.44;100678.34;104909;1288;262035;-74
2023/02/20 07:41:00;;;;;;;;;;;;;;;3.18;74.44;100670.20;105115;1292;67438;-74
2023/02/20 07:43:46;;;;;;;;;;;;;;;3.20;74.53;100669.90;105051;1288;72529;-74
2023/02/20 07:46:33;;;;;;;;;;;;;;;3.22;74.81;100667.02;104972;1288;59814;-74
2023/02/20 07:49:19;;;;;;;;;;;;;;;3.23;74.73;100658.70;105148;1288;59683;-74
2023/02/20 07:52:05;;;;;;;;;;;;;;;3.25;74.61;100653.27;105179;1288;74635;-74
2023/02/20 07:54:52;;;;;;;;;;;;;;;3.28;74.70;100653.31;104962;1288;67221;-74
2023/02/20 07:57:38;;;;;;;;;;;;;;;3.31;74.84;100648.42;105088;1288;72995;-74
2023/02/20 08:00:25;;;;;;;;;;;;;;;3.33;74.82;100645.89;104982;1288;60420;-74
2023/02/20 08:03:11;;;;;;;;;;;;;;;3.37;74.86;100646.79;105072;1288;60517;-74
2023/02/20 08:05:57;;;;;;;;;;;;;;;3.38;74.82;100645.45;105111;1288;73331;-74
2023/02/20 08:08:50;;;;;;;;;;;;;;;3.40;74.89;100644.11;105090;1292;68974;-74
2023/02/20 08:11:36;;;;;;;;;;;;;;;3.42;74.97;100639.88;105059;1288;73285;-74
2023/02/20 08:14:23;;;;;;;;;;;;;;;3.44;75.04;100631.21;105079;1288;61266;-74
2023/02/20 08:17:11;;;;;;;;;;;;;;;3.47;75.04;100621.70;104985;1288;61830;-74
2023/02/20 08:19:57;;;;;;;;;;;;;;;3.50;74.98;100622.27;104959;1288;73582;-74
2023/02/20 08:22:47;;;;;;;;;;;;;;;3.55;75.09;100615.68;105077;1291;67659;-74
2023/02/20 08:25:34;;;;;;;;;;;;;;;3.60;75.44;100602.96;105060;1288;71314;-74
2023/02/20 08:28:20;;;;;;;;;;;;;;;3.65;75.22;100599.59;105019;1288;61183;-74
2023/02/20 08:31:07;;;;;;;;;;;;;;;3.70;75.53;100594.86;105013;1290;61163;-74
2023/02/20 08:33:53;;;;;;;;;;;;;;;3.73;75.35;100595.08;105090;1288;75454;-74
2023/02/20 08:36:39;;;;;;;;;;;;;;;3.77;75.39;100589.49;105067;1288;67185;-74
2023/02/20 08:39:26;;;;;;;;;;;;;;;3.81;75.49;100594.66;104896;1288;71392;-74
2023/02/20 08:42:14;;;;;;;;;;;;;;;3.83;75.62;100592.63;101750;1289;5160906;-74
2023/02/20 08:45:00;;;;;;;;;;;;;;;3.85;75.58;100586.85;106024;1289;73817;-75
2023/02/20 08:47:47;;;;;;;;;;;;;;;3.86;75.58;100587.71;105886;1290;67434;-75
2023/02/20 08:50:33;;;;;;;;;;;;;;;3.88;75.65;100570.69;105859;1289;73488;-74
2023/02/20 08:53:19;;;;;;;;;;;;;;;3.91;75.66;100557.92;106106;1290;59666;-74
2023/02/20 08:56:06;;;;;;;;;;;;;;;3.93;75.70;100550.79;106046;1289;60839;-74
2023/02/20 08:58:52;;;;;;;;;;;;;;;3.95;75.75;100562.08;105923;1291;73378;-74
2023/02/20 09:01:42;;;;;;;;;;;;;;;3.98;75.73;100527.31;105993;1289;68417;-74
2023/02/20 09:04:27;;;;;;;;;;;;;;;4.02;75.78;100517.95;105987;1289;72367;-74
2023/02/20 09:07:13;;;;;;;;;;;;;;;4.05;75.95;100505.54;106019;1289;59448;-74
2023/02/20 09:09:59;;;;;;;;;;;;;;;4.07;75.93;100505.38;106016;1289;59239;-74
2023/02/20 09:12:45;;;;;;;;;;;;;;;4.11;75.98;100478.98;105980;1289;75537;-74
2023/02/20 09:15:37;;;;;;;;;;;;;;;4.15;76.02;100458.36;105430;1290;68360;-74
2023/02/20 09:18:23;;;;;;;;;;;;;;;4.19;76.06;100457.34;104896;1291;72629;-74
2023/02/20 09:21:10;;;;;;;;;;;;;;;4.23;76.14;100436.05;104952;1289;59468;-74
2023/02/20 09:23:56;;;;;;;;;;;;;;;4.26;76.27;100405.19;104926;1291;61806;-74
2023/02/20 09:26:42;;;;;;;;;;;;;;;4.26;76.48;100401.95;104876;1291;74837;-74
2023/02/20 09:29:29;;;;;;;;;;;;;;;4.27;76.28;100400.93;105016;1290;68032;-74
2023/02/20 09:32:15;;;;;;;;;;;;;;;4.28;76.41;100388.98;104940;1291;71337;-74
2023/02/20 09:35:01;;;;;;;;;;;;;;;4.29;76.37;100359.99;104757;1289;60179;-74
2023/02/20 09:37:48;;;;;;;;;;;;;;;4.31;76.53;100390.55;105008;1291;61257;-74
2023/02/20 09:40:35;;;;;;;;;;;;;;;4.36;76.58;100393.98;105034;1291;74533;-74
2023/02/20 09:43:40;;;;;;;;;;;;;;;4.43;76.68;100386.85;105027;1293;68077;-74
2023/02/20 09:46:26;;;;;;;;;;;;;;;4.49;76.60;100376.65;104964;1291;72318;-74
2023/02/20 09:49:18;;;;;;;;;;;;;;;4.54;76.71;100372.41;104888;1289;60978;-75
2023/02/20 09:52:08;;;;;;;;;;;;;;;4.61;76.69;100377.73;105000;1289;59233;-75
2023/02/20 09:55:00;;;;;;;;;;;;;;;4.68;76.67;100368.86;104852;1291;73309;-75
2023/02/20 09:57:51;;;;;;;;;;;;;;;4.77;76.77;100356.59;105016;1290;67701;-75
2023/02/20 10:00:38;;;;;;;;;;;;;;;4.85;76.92;100343.64;104845;1290;71178;-75
2023/02/20 10:03:47;;;;;;;;;;;;;;;4.91;76.74;100334.95;104996;1289;59311;-75
2023/02/20 10:06:33;;;;;;;;;;;;;;;4.98;77.03;100332.06;104527;1294;59631;-75
2023/02/20 10:09:20;;;;;;;;;;;;;;;5.03;77.05;100321.66;104523;1294;74674;-75
2023/02/20 10:12:20;;;;;;;;;;;;;;;5.08;76.96;100300.82;104490;1294;67905;-75
2023/02/20 10:15:25;;;;;;;;;;;;;;;5.13;77.04;100290.74;104468;1294;72405;-75
2023/02/20 10:18:34;;;;;;;;;;;;;;;5.21;77.02;100272.27;104514;1294;61871;-74
2023/02/20 10:21:40;;;;;;;;;;;;;;;5.29;77.15;100261.84;104004;1301;61173;-75
2023/02/20 10:24:38;;;;;;;;;;;;;;;5.39;77.29;100255.69;103951;1303;73615;-75
2023/02/20 10:27:30;;;;;;;;;;;;;;;5.47;77.24;100256.37;103876;1302;67542;-75
2023/02/20 10:30:28;;;;;;;;;;;;;;;5.54;77.22;100256.02;105048;1302;71222;-75
2023/02/20 10:33:37;;;;;;;;;;;;;;;5.62;77.20;100243.52;105007;1301;59335;-75
2023/02/20 10:36:33;;;;;;;;;;;;;;;5.73;77.15;100227.41;104352;1307;59307;-75
2023/02/20 10:39:20;;;;;;;;;;;;;;;5.81;77.38;100230.45;104381;1308;74600;-75
2023/02/20 10:42:12;;;;;;;;;;;;;;;5.89;77.16;100210.95;104130;1309;67634;-75
2023/02/20 10:45:08;;;;;;;;;;;;;;;5.96;77.28;100208.04;104698;1304;72638;-75
2023/02/20 10:48:18;;;;;;;;;;;;;;;6.04;77.32;100217.92;104562;1304;59701;-75
2023/02/20 10:51:10;;;;;;;;;;;;;;;6.10;77.25;100219.79;104044;1311;59942;-75
2023/02/20 10:53:59;;;;;;;;;;;;;;;6.15;77.34;100218.73;104039;1311;73262;-75
2023/02/20 10:56:45;;;;;;;;;;;;;;;6.22;77.22;100204.49;104027;1310;67262;-75
2023/02/20 10:59:50;;;;;;;;;;;;;;;6.29;77.31;100203.58;104634;1305;71236;-75
2023/02/20 11:02:40;;;;;;;;;;;;;;;6.36;77.31;100205.94;104641;1310;59475;-75
2023/02/20 11:05:30;;;;;;;;;;;;;;;6.44;77.36;100199.90;104625;1305;60098;-75
2023/02/20 11:08:19;;;;;;;;;;;;;;;6.52;77.41;100194.03;104641;1305;74658;-75
2023/02/20 11:11:19;;;;;;;;;;;;;;;6.59;77.33;100193.47;104554;1305;68981;-75
2023/02/20 11:14:17;;;;;;;;;;;;;;;6.69;77.41;100175.08;105057;1299;71368;-75
2023/02/20 11:17:25;;;;;;;;;;;;;;;6.77;77.29;100172.79;105199;1298;59769;-79
2023/02/20 11:20:30;;;;;;;;;;;;;;;6.85;77.30;100164.83;105216;1299;59361;-76
2023/02/20 11:23:35;;;;;;;;;;;;;;;6.95;77.39;100168.67;105222;1298;74750;-75
2023/02/20 11:26:29;;;;;;;;;;;;;;;7.03;77.38;100153.88;105242;1299;66591;-75
2023/02/20 11:29:16;;;;;;;;;;;;;;;7.12;77.42;100139.41;105807;1290;72499;-75
2023/02/20 11:32:22;;;;;;;;;;;;;;;7.19;77.29;100139.67;105841;1290;59892;-75
2023/02/20 11:35:14;;;;;;;;;;;;;;;7.25;77.35;100117.85;104925;1290;63590;-76
2023/02/20 11:38:38;;;;;;;;;;;;;;;7.28;77.32;100124.15;105951;1289;74620;-75
2023/02/20 11:41:44;;;;;;;;;;;;;;;7.32;77.25;100109.34;105487;1294;68209;-75
2023/02/20 11:44:30;;;;;;;;;;;;;;;7.37;77.26;100101.23;104284;1302;71398;-75
2023/02/20 11:47:20;;;;;;;;;;;;;;;7.41;77.24;100094.84;103856;1302;59865;-75
2023/02/20 11:50:12;;;;;;;;;;;;;;;7.44;77.21;100091.04;104001;1305;61403;-75
2023/02/20 11:53:04;;;;;;;;;;;;;;;7.46;77.16;100100.45;104014;1302;75364;-75
2023/02/20 11:56:08;;;;;;;;;;;;;;;7.45;77.10;100106.95;103942;1302;68992;-75
2023/02/20 11:59:12;;;;;;;;;;;;;;;7.45;77.06;100095.14;103891;1302;72133;-75
2023/02/20 12:02:30;;;;;;;;;;;;;;;7.46;77.04;100100.27;104000;1301;59839;-75
2023/02/20 12:05:17;;;;;;;;;;;;;;;7.48;77.05;100087.04;103522;1308;60026;-75
2023/02/20 12:08:19;;;;;;;;;;;;;;;7.49;77.01;100090.80;103511;1308;74013;-75
2023/02/20 12:11:07;;;;;;;;;;;;;;;7.49;77.03;100083.94;103286;1308;72114;-75
2023/02/20 12:13:55;;;;;;;;;;;;;;;7.49;76.94;100081.19;103695;1308;73222;-75
2023/02/20 12:16:55;;;;;;;;;;;;;;;7.49;76.99;100074.16;103771;1302;60129;-75
2023/02/20 12:20:07;;;;;;;;;;;;;;;7.51;76.92;100078.42;103898;1304;59549;-75
2023/02/20 12:23:11;;;;;;;;;;;;;;;7.52;76.91;100067.79;103687;1304;73968;-75
2023/02/20 12:26:20;;;;;;;;;;;;;;;7.53;76.94;100061.94;103775;1304;67292;-75
2023/02/20 12:29:12;;;;;;;;;;;;;;;7.55;76.88;100052.14;103755;1307;73697;-75
2023/02/20 12:32:04;;;;;;;;;;;;;;;7.58;76.94;100051.92;103736;1305;61196;-75
2023/02/20 12:35:11;;;;;;;;;;;;;;;7.61;76.98;100050.35;103824;1304;59477;-75
2023/02/20 12:38:16;;;;;;;;;;;;;;;7.67;77.03;100040.67;103169;1309;75241;-75
2023/02/20 12:41:20;;;;;;;;;;;;;;;7.75;77.03;100037.98;103285;1307;69954;-75
2023/02/20 12:44:42;;;;;;;;;;;;;;;7.81;76.91;100023.98;103751;1305;72283;-75
2023/02/20 12:47:33;;;;;;;;;;;;;;;7.88;77.01;100020.79;103467;1308;61267;-75
2023/02/20 12:50:51;;;;;;;;;;;;;;;7.92;76.89;100018.48;103479;1310;61379;-75
2023/02/20 12:53:46;;;;;;;;;;;;;;;7.96;76.76;100022.39;103030;1314;74974;-75
2023/02/20 12:57:08;;;;;;;;;;;;;;;7.99;76.81;100007.23;103004;1314;67307;-75
2023/02/20 13:00:02;;;;;;;;;;;;;;;8.04;76.84;100009.92;102645;1315;71534;-75
2023/02/20 13:02:50;;;;;;;;;;;;;;;8.05;76.82;100005.60;102791;1314;60618;-75
2023/02/20 13:05:40;;;;;;;;;;;;;;;8.05;76.83;100018.83;102782;1314;61397;-75
2023/02/20 13:08:30;;;;;;;;;;;;;;;8.05;76.80;100001.14;102765;1314;73449;-75
2023/02/20 13:11:19;;;;;;;;;;;;;;;8.06;76.76;99988.42;102785;1314;67293;-75
2023/02/20 13:14:34;;;;;;;;;;;;;;;8.08;76.86;99991.48;102340;1314;71417;-74
2023/02/20 13:17:23;;;;;;;;;;;;;;;8.09;76.80;99982.89;102876;1313;61201;-75
2023/02/20 13:20:20;;;;;;;;;;;;;;;8.08;76.78;99993.88;102688;1314;59984;-75
2023/02/20 13:23:16;;;;;;;;;;;;;;;8.09;76.92;99995.08;103234;1312;72289;-75
2023/02/20 13:26:23;;;;;;;;;;;;;;;8.09;76.84;99998.51;103217;1310;67295;-75
2023/02/20 13:29:13;;;;;;;;;;;;;;;8.08;76.83;99994.23;103270;1308;74124;-75
2023/02/20 13:32:01;;;;;;;;;;;;;;;8.07;76.85;99985.81;103620;1305;59447;-75
2023/02/20 13:34:47;;;;;;;;;;;;;;;8.07;76.85;99988.73;104030;1298;63661;-75
2023/02/20 13:37:54;;;;;;;;;;;;;;;8.07;76.82;99990.63;104128;1299;76095;-75
2023/02/20 13:41:02;;;;;;;;;;;;;;;8.07;76.86;99997.17;103779;1304;69319;-75
2023/02/20 13:43:48;;;;;;;;;;;;;;;8.07;76.94;99992.02;104665;1305;73188;-75
2023/02/20 13:46:53;;;;;;;;;;;;;;;8.06;76.84;99990.65;104755;1304;59955;-75
2023/02/20 13:49:48;;;;;;;;;;;;;;;8.05;76.95;99987.40;103799;1304;60200;-75
2023/02/20 13:52:34;;;;;;;;;;;;;;;8.05;76.85;99973.16;103789;1304;73149;-75
2023/02/20 13:55:29;;;;;;;;;;;;;;;8.04;76.97;99981.08;104399;1299;67316;-75
2023/02/20 13:58:21;;;;;;;;;;;;;;;8.04;76.88;99975.76;104342;1302;81230;-75
2023/02/20 14:01:07;;;;;;;;;;;;;;;8.03;76.90;99972.16;104333;1297;61986;-75
2023/02/20 14:04:04;;;;;;;;;;;;;;;8.03;76.91;99970.61;104366;1301;61297;-74
2023/02/20 14:06:51;;;;;;;;;;;;;;;8.03;76.96;99968.20;104392;1296;73829;-74
2023/02/20 14:09:38;;;;;;;;;;;;;;;8.05;77.00;99968.02;104397;1297;69025;-74
2023/02/20 14:12:24;;;;;;;;;;;;;;;8.05;77.00;99974.02;104377;1296;71661;-74
2023/02/20 14:15:10;;;;;;;;;;;;;;;8.07;77.01;99965.58;104423;1296;61486;-74
2023/02/20 14:17:57;;;;;;;;;;;;;;;8.08;76.95;99958.52;104611;1290;61077;-74
2023/02/20 14:20:44;;;;;;;;;;;;;;;8.10;77.07;99943.22;104959;1290;73216;-74
2023/02/20 14:23:32;;;;;;;;;;;;;;;8.10;76.98;99939.61;104904;1293;68202;-75
2023/02/20 14:26:18;;;;;;;;;;;;;;;8.11;77.05;99949.54;104805;1289;71241;-75
2023/02/20 14:29:18;;;;;;;;;;;;;;;8.12;77.04;99945.75;104905;1290;62429;-75
2023/02/20 14:32:05;;;;;;;;;;;;;;;8.13;77.04;99949.00;104956;1290;61275;-74
2023/02/20 14:34:55;;;;;;;;;;;;;;;8.13;77.04;99937.15;104873;1289;73363;-75
2023/02/20 14:38:10;;;;;;;;;;;;;;;8.14;77.09;99936.45;104784;1290;68711;-75
2023/02/20 14:40:58;;;;;;;;;;;;;;;8.16;77.09;99939.33;104415;1296;71283;-75
2023/02/20 14:43:52;;;;;;;;;;;;;;;8.17;77.04;99935.20;105311;1296;59194;-75
2023/02/20 14:46:39;;;;;;;;;;;;;;;8.18;77.04;99937.23;104898;1296;61146;-75
2023/02/20 14:49:27;;;;;;;;;;;;;;;8.18;77.09;99926.77;104320;1301;74872;-75
2023/02/20 14:52:15;;;;;;;;;;;;;;;8.19;77.06;99925.73;104000;1297;368242;-75
2023/02/20 14:55:03;;;;;;;;;;;;;;;8.20;77.02;99907.51;104408;1296;71223;-75
2023/02/20 14:57:50;;;;;;;;;;;;;;;8.23;77.10;99904.52;104350;1296;59786;-75